createdAt,value
2023-09-17T00:00:48.231Z,98832.38
2023-09-17T00:05:50.512Z,98890.81
2023-09-17T00:10:53.398Z,98892.22
2023-09-17T00:15:55.674Z,98863.72
2023-09-17T00:20:58.318Z,98858.34
2023-09-17T00:26:00.591Z,98863.09
2023-09-17T00:31:02.843Z,98934.38
2023-09-17T00:36:05.266Z,98991.34
2023-09-17T00:41:08.463Z,98773.38
2023-09-17T00:46:14.456Z,98789.13
2023-09-17T00:51:17.853Z,98988.56
2023-09-17T00:56:21.221Z,98939.28
2023-09-17T01:01:23.686Z,98905.97
2023-09-17T01:06:26.420Z,98781.19
2023-09-17T01:11:28.761Z,98936.47
2023-09-17T01:16:32.292Z,98891.06
2023-09-17T01:21:43.210Z,98909.34
2023-09-17T01:26:59.665Z,98819.38
2023-09-17T01:32:02.005Z,98852.97
2023-09-17T01:37:17.733Z,98841.22
2023-09-17T01:42:21.429Z,98841.44
2023-09-17T01:47:24.998Z,98827.22
2023-09-17T01:52:33.564Z,98796.94
2023-09-17T01:57:36.882Z,98841.13
2023-09-17T02:02:41.495Z,98839.66
2023-09-17T02:07:46.750Z,98845.22
2023-09-17T02:12:49.008Z,98873.97
2023-09-17T02:17:54.789Z,98871.09
2023-09-17T02:22:57.222Z,98924.19
2023-09-17T02:28:00.190Z,98887.78
2023-09-17T02:33:02.630Z,98846.16
2023-09-17T02:38:05.862Z,98837.53
2023-09-17T02:43:08.321Z,98855.13
2023-09-17T02:48:13.346Z,98831.94
2023-09-17T02:53:15.737Z,98831.22
2023-09-17T02:58:18.108Z,98886.47
2023-09-17T03:03:20.568Z,98950.25
2023-09-17T03:08:23.044Z,98839.59
2023-09-17T03:13:26.032Z,98801.13
2023-09-17T03:18:28.364Z,98784.91
2023-09-17T03:23:30.773Z,98813.28
2023-09-17T03:28:34.099Z,98836.69
2023-09-17T03:33:37.777Z,98822.34
2023-09-17T03:38:40.210Z,98843.38
2023-09-17T03:43:42.637Z,98848.84
2023-09-17T03:48:45.096Z,98845.31
2023-09-17T03:53:47.389Z,98946.22
2023-09-17T03:58:50.058Z,98880.38
2023-09-17T04:03:54.156Z,98838.59
2023-09-17T04:08:56.939Z,98843.69
2023-09-17T04:13:59.324Z,98819.44
2023-09-17T04:19:01.676Z,98853.66
2023-09-17T04:24:04.800Z,98887.28
2023-09-17T04:29:08.585Z,98860.81
2023-09-17T04:34:12.484Z,98852.09
2023-09-17T04:39:17.611Z,98880.63
2023-09-17T04:44:19.892Z,98922.81
2023-09-17T04:49:23.237Z,98961.34
2023-09-17T04:54:25.787Z,98931.25
2023-09-17T04:59:30.264Z,98912.22
2023-09-17T05:04:32.831Z,98800.25
2023-09-17T05:09:35.143Z,98827.88
2023-09-17T05:14:37.421Z,98901.63
2023-09-17T05:19:39.701Z,98917.78
2023-09-17T05:24:43.235Z,98940.00
2023-09-17T05:29:47.612Z,98993.81
2023-09-17T05:34:49.922Z,98958.50
2023-09-17T05:39:52.650Z,98947.50
2023-09-17T05:44:55.199Z,98907.13
2023-09-17T05:50:00.664Z,99003.28
2023-09-17T05:55:07.859Z,98990.22
2023-09-17T06:00:11.211Z,99079.31
2023-09-17T06:05:19.927Z,98985.50
2023-09-17T06:10:23.383Z,99031.47
2023-09-17T06:15:26.751Z,99029.56
2023-09-17T06:20:29.891Z,98982.66
2023-09-17T06:25:32.944Z,99032.97
2023-09-17T06:30:35.557Z,99003.56
2023-09-17T06:35:37.937Z,99048.06
2023-09-17T06:40:40.270Z,98988.56
2023-09-17T06:45:42.750Z,99001.13
2023-09-17T06:50:45.047Z,99019.56
2023-09-17T06:55:47.354Z,99036.72
2023-09-17T07:00:49.777Z,99067.41
2023-09-17T07:05:52.132Z,99056.16
2023-09-17T07:10:54.493Z,99094.97
2023-09-17T07:15:56.807Z,99123.81
2023-09-17T07:20:59.693Z,99091.09
2023-09-17T07:26:03.896Z,99048.94
2023-09-17T07:31:11.383Z,98996.53
2023-09-17T07:36:14.941Z,99013.97
2023-09-17T07:41:17.194Z,99063.25
2023-09-17T07:46:19.588Z,99045.75
2023-09-17T07:51:21.871Z,99052.00
2023-09-17T07:56:25.436Z,99020.25
2023-09-17T08:01:28.226Z,98997.50
2023-09-17T08:06:30.737Z,99040.16
2023-09-17T08:11:33.201Z,98998.69
2023-09-17T08:16:36.474Z,99045.25
2023-09-17T08:21:38.768Z,99099.03
2023-09-17T08:26:41.161Z,99094.06
2023-09-17T08:31:44.838Z,99084.31
2023-09-17T08:36:47.166Z,99094.53
2023-09-17T08:41:50.188Z,99059.22
2023-09-17T08:46:54.262Z,99047.53
2023-09-17T08:52:01.266Z,99103.41
2023-09-17T08:57:05.109Z,99019.56
2023-09-17T09:02:27.206Z,99060.81
2023-09-17T09:07:30.604Z,99087.69
2023-09-17T09:12:32.873Z,99039.16
2023-09-17T09:17:35.110Z,99079.78
2023-09-17T09:22:42.085Z,99027.44
2023-09-17T09:27:45.008Z,99007.97
2023-09-17T09:32:47.716Z,99075.38
2023-09-17T09:37:50.444Z,99039.91
2023-09-17T09:42:52.932Z,99032.22
2023-09-17T09:47:55.714Z,99066.50
2023-09-17T09:52:58.130Z,99049.69
2023-09-17T09:58:01.447Z,99041.94
2023-09-17T10:03:06.058Z,99046.16
2023-09-17T10:08:13.473Z,99014.59
2023-09-17T10:13:18.609Z,99003.13
2023-09-17T10:18:21.548Z,99018.91
2023-09-17T10:23:25.471Z,98985.63
2023-09-17T10:28:28.348Z,99029.38
2023-09-17T10:33:34.939Z,98938.31
2023-09-17T10:38:40.016Z,98945.38
2023-09-17T10:43:44.800Z,98972.94
2023-09-17T10:48:50.281Z,98916.75
2023-09-17T10:53:52.709Z,98931.59
2023-09-17T10:58:55.250Z,98957.56
2023-09-17T11:04:07.596Z,98953.88
2023-09-17T11:09:10.020Z,98917.63
2023-09-17T11:14:15.402Z,98935.94
2023-09-17T11:19:22.458Z,98882.84
2023-09-17T11:24:24.663Z,98949.22
2023-09-17T11:29:41.726Z,98909.72
2023-09-17T11:34:44.971Z,98991.28
2023-09-17T11:39:52.011Z,98954.72
2023-09-17T11:44:56.406Z,98979.25
2023-09-17T11:49:59.168Z,98973.28
2023-09-17T11:55:13.247Z,98910.31
2023-09-17T12:00:29.727Z,98964.50
2023-09-17T12:05:31.942Z,98975.31
2023-09-17T12:10:38.357Z,98949.16
2023-09-17T12:15:43.065Z,98955.69
2023-09-17T12:20:58.303Z,98972.31
2023-09-17T12:26:01.034Z,98848.63
2023-09-17T12:31:04.051Z,98939.47
2023-09-17T12:36:06.759Z,98838.94
2023-09-17T12:41:10.244Z,98803.97
2023-09-17T12:46:12.949Z,98934.50
2023-09-17T12:51:15.291Z,98896.06
2023-09-17T12:56:17.648Z,98873.50
2023-09-17T13:01:19.916Z,98856.88
2023-09-17T13:06:26.196Z,98829.94
2023-09-17T13:11:29.416Z,98868.25
2023-09-17T13:16:33.283Z,98827.63
2023-09-17T13:21:35.592Z,98808.22
2023-09-17T13:26:37.794Z,98831.75
2023-09-17T13:31:42.147Z,98817.75
2023-09-17T13:36:44.577Z,98794.44
2023-09-17T13:41:46.950Z,98838.53
2023-09-17T13:46:50.155Z,98809.06
2023-09-17T13:51:52.745Z,98879.03
2023-09-17T13:56:54.890Z,98830.41
2023-09-17T14:01:57.820Z,98795.66
2023-09-17T14:07:00.128Z,98730.16
2023-09-17T14:12:03.131Z,98691.00
2023-09-17T14:17:06.172Z,98753.13
2023-09-17T14:22:08.490Z,98840.44
2023-09-17T14:27:10.780Z,98677.84
2023-09-17T14:32:13.376Z,98754.06
2023-09-17T14:37:15.618Z,98759.34
2023-09-17T14:42:18.049Z,98738.97
2023-09-17T14:47:20.298Z,98685.66
2023-09-17T14:52:24.113Z,98741.31
2023-09-17T14:57:26.386Z,98581.63
2023-09-17T15:02:29.575Z,98738.44
2023-09-17T15:07:32.020Z,98722.94
2023-09-17T15:12:34.207Z,98721.31
2023-09-17T15:17:37.044Z,98716.75
2023-09-17T15:22:39.680Z,98635.25
2023-09-17T15:27:41.965Z,98705.78
2023-09-17T15:32:44.278Z,98635.25
2023-09-17T15:37:47.915Z,98675.59
2023-09-17T15:42:50.838Z,98642.75
2023-09-17T15:47:52.993Z,98620.72
2023-09-17T15:52:55.301Z,98641.72
2023-09-17T15:57:59.360Z,98633.91
2023-09-17T16:03:01.817Z,98551.41
2023-09-17T16:08:04.426Z,98696.38
2023-09-17T16:13:07.431Z,98645.38
2023-09-17T16:18:09.733Z,98583.41
2023-09-17T16:23:12.000Z,98569.91
2023-09-17T16:28:14.262Z,98520.84
2023-09-17T16:33:16.626Z,98530.69
2023-09-17T16:38:20.857Z,98583.53
2023-09-17T16:43:23.385Z,98621.75
2023-09-17T16:48:27.012Z,98578.06
2023-09-17T16:53:29.258Z,98539.81
2023-09-17T16:58:31.392Z,98612.16
2023-09-17T17:03:33.746Z,98546.94
2023-09-17T17:08:35.970Z,98545.22
2023-09-17T17:13:38.616Z,98550.03
2023-09-17T17:18:40.802Z,98539.00
2023-09-17T17:23:43.049Z,98519.41
2023-09-17T17:28:46.031Z,98459.75
2023-09-17T17:33:48.181Z,98543.81
2023-09-17T17:38:51.162Z,98448.66
2023-09-17T17:43:55.007Z,98442.22
2023-09-17T17:48:57.550Z,98507.00
2023-09-17T17:53:59.886Z,98448.94
2023-09-17T17:59:03.203Z,98483.16
2023-09-17T18:04:05.635Z,98423.97
2023-09-17T18:09:09.508Z,98380.72
2023-09-17T18:14:11.897Z,98396.59
2023-09-17T18:19:14.275Z,98421.38
2023-09-17T18:24:17.112Z,98468.50
2023-09-17T18:29:23.051Z,98435.66
2023-09-17T18:34:26.978Z,98519.94
2023-09-17T18:39:29.445Z,98432.31
2023-09-17T18:44:31.811Z,98363.63
2023-09-17T18:49:34.039Z,98366.25
2023-09-17T18:54:36.270Z,98380.50
2023-09-17T18:59:38.498Z,98441.56
2023-09-17T19:04:41.579Z,98363.22
2023-09-17T19:09:44.368Z,98466.25
2023-09-17T19:14:47.658Z,98385.13
2023-09-17T19:19:50.035Z,98435.28
2023-09-17T19:24:52.357Z,98430.69
2023-09-17T19:29:54.614Z,98421.25
2023-09-17T19:34:58.348Z,98438.63
2023-09-17T19:40:00.632Z,98314.16
2023-09-17T19:45:02.961Z,98483.53
2023-09-17T19:50:06.047Z,98441.31
2023-09-17T19:55:09.223Z,98429.09
2023-09-17T20:00:12.402Z,98313.50
2023-09-17T20:05:14.753Z,98443.09
2023-09-17T20:10:18.132Z,98380.94
2023-09-17T20:15:20.331Z,98444.25
2023-09-17T20:20:22.633Z,98358.81
2023-09-17T20:25:24.881Z,98419.59
2023-09-17T20:30:27.872Z,98453.38
2023-09-17T20:35:30.331Z,98313.78
2023-09-17T20:40:32.883Z,98339.78
2023-09-17T20:45:35.057Z,98444.50
2023-09-17T20:50:37.214Z,98480.00
2023-09-17T20:55:39.620Z,98459.28
2023-09-17T21:00:41.966Z,98387.22
2023-09-17T21:05:50.995Z,98418.28
2023-09-17T21:10:53.290Z,98477.22
2023-09-17T21:15:55.654Z,98398.75
2023-09-17T21:20:59.821Z,98503.34
2023-09-17T21:26:03.720Z,98371.97
2023-09-17T21:31:08.439Z,98389.88
2023-09-17T21:36:10.896Z,98507.69
2023-09-17T21:41:15.037Z,98325.50
2023-09-17T21:46:17.960Z,98425.50
2023-09-17T21:51:20.206Z,98433.28
2023-09-17T21:56:22.481Z,98368.97
2023-09-17T22:01:26.303Z,98364.06
2023-09-17T22:06:28.750Z,98493.69
2023-09-17T22:11:31.041Z,98345.69
2023-09-17T22:16:36.602Z,98474.66
2023-09-17T22:21:39.448Z,98451.88
2023-09-17T22:26:41.670Z,98426.69
2023-09-17T22:31:44.438Z,98494.59
2023-09-17T22:36:46.763Z,98331.44
2023-09-17T22:41:49.051Z,98489.63
2023-09-17T22:46:51.355Z,98493.00
2023-09-17T22:51:53.698Z,98343.31
2023-09-17T22:56:56.048Z,98466.22
2023-09-17T23:01:59.060Z,98402.19
2023-09-17T23:07:01.692Z,98466.88
2023-09-17T23:12:04.470Z,98482.47
2023-09-17T23:17:06.727Z,98370.94
2023-09-17T23:22:09.036Z,98405.81
2023-09-17T23:27:11.320Z,98455.72
2023-09-17T23:32:15.246Z,98459.69
2023-09-17T23:37:17.724Z,98468.47
2023-09-17T23:42:19.963Z,98488.72
2023-09-17T23:47:22.448Z,98495.69
2023-09-17T23:52:25.111Z,98592.25
2023-09-17T23:57:27.278Z,98412.09
